sensor_id;sensor_type;location;lat;lon;timestamp;P1;durP1;ratioP1;P2;durP2;ratioP2
79126;SDS011;68528;48.814;8.904;2023-07-29T06:56:36;2.33;;;1.35;;
79126;SDS011;68528;48.814;8.904;2023-07-29T06:59:23;2.55;;;1.63;;
79126;SDS011;68528;48.814;8.904;2023-07-29T07:01:50;4.65;;;1.92;;
79126;SDS011;68528;48.814;8.904;2023-07-29T07:04:16;3.00;;;1.65;;
79126;SDS011;68528;48.814;8.904;2023-07-29T07:06:41;1.88;;;1.50;;
79126;SDS011;68528;48.814;8.904;2023-07-29T07:09:06;2.70;;;1.70;;
79126;SDS011;68528;48.814;8.904;2023-07-29T07:11:32;4.28;;;1.77;;
79126;SDS011;68528;48.814;8.904;2023-07-29T07:13:57;3.85;;;1.90;;
79126;SDS011;68528;48.814;8.904;2023-07-29T07:16:23;4.43;;;2.13;;
79126;SDS011;68528;48.814;8.904;2023-07-29T07:18:51;2.90;;;2.10;;
79126;SDS011;68528;48.814;8.904;2023-07-29T07:21:16;3.47;;;1.90;;
79126;SDS011;68528;48.814;8.904;2023-07-29T07:23:41;4.15;;;1.63;;
79126;SDS011;68528;48.814;8.904;2023-07-29T07:26:07;3.22;;;1.90;;
79126;SDS011;68528;48.814;8.904;2023-07-29T07:28:34;2.80;;;1.70;;
79126;SDS011;68528;48.814;8.904;2023-07-29T07:31:00;2.70;;;1.85;;
79126;SDS011;68528;48.814;8.904;2023-07-29T07:33:27;2.60;;;1.83;;
79126;SDS011;68528;48.814;8.904;2023-07-29T07:36:07;2.30;;;1.63;;
79126;SDS011;68528;48.814;8.904;2023-07-29T07:38:37;5.53;;;2.20;;
79126;SDS011;68528;48.814;8.904;2023-07-29T07:41:02;3.20;;;1.67;;
79126;SDS011;68528;48.814;8.904;2023-07-29T07:43:28;2.75;;;2.03;;
79126;SDS011;68528;48.814;8.904;2023-07-29T07:45:59;2.10;;;1.90;;
79126;SDS011;68528;48.814;8.904;2023-07-29T07:48:25;3.28;;;1.80;;
79126;SDS011;68528;48.814;8.904;2023-07-29T07:50:51;1.75;;;1.50;;
79126;SDS011;68528;48.814;8.904;2023-07-29T07:53:17;1.98;;;1.10;;
79126;SDS011;68528;48.814;8.904;2023-07-29T07:55:42;3.50;;;2.03;;
79126;SDS011;68528;48.814;8.904;2023-07-29T07:58:07;1.48;;;0.90;;
79126;SDS011;68528;48.814;8.904;2023-07-29T08:00:33;2.50;;;1.05;;
79126;SDS011;68528;48.814;8.904;2023-07-29T08:02:58;2.65;;;1.30;;
79126;SDS011;68528;48.814;8.904;2023-07-29T08:05:23;2.10;;;1.30;;
79126;SDS011;68528;48.814;8.904;2023-07-29T08:07:49;1.75;;;0.93;;
79126;SDS011;68528;48.814;8.904;2023-07-29T08:10:14;2.47;;;0.82;;
79126;SDS011;68528;48.814;8.904;2023-07-29T08:12:44;2.28;;;0.82;;
79126;SDS011;68528;48.814;8.904;2023-07-29T08:15:10;2.63;;;0.98;;
79126;SDS011;68528;48.814;8.904;2023-07-29T08:17:36;1.92;;;0.90;;
79126;SDS011;68528;48.814;8.904;2023-07-29T08:20:04;1.50;;;1.10;;
79126;SDS011;68528;48.814;8.904;2023-07-29T08:22:31;3.17;;;1.00;;
79126;SDS011;68528;48.814;8.904;2023-07-29T08:24:57;1.73;;;1.00;;
79126;SDS011;68528;48.814;8.904;2023-07-29T08:27:23;1.83;;;1.52;;
79126;SDS011;68528;48.814;8.904;2023-07-29T08:30:44;1.08;;;0.60;;
79126;SDS011;68528;48.814;8.904;2023-07-29T08:33:09;3.13;;;1.10;;
79126;SDS011;68528;48.814;8.904;2023-07-29T08:35:35;2.08;;;0.90;;
79126;SDS011;68528;48.814;8.904;2023-07-29T08:38:00;1.88;;;1.08;;
79126;SDS011;68528;48.814;8.904;2023-07-29T08:40:27;1.40;;;1.13;;
79126;SDS011;68528;48.814;8.904;2023-07-29T08:42:55;1.35;;;0.80;;
79126;SDS011;68528;48.814;8.904;2023-07-29T08:45:24;7.30;;;1.30;;
79126;SDS011;68528;48.814;8.904;2023-07-29T08:47:51;1.10;;;0.90;;
79126;SDS011;68528;48.814;8.904;2023-07-29T08:51:01;1.85;;;0.80;;
79126;SDS011;68528;48.814;8.904;2023-07-29T08:53:30;6.53;;;0.90;;
79126;SDS011;68528;48.814;8.904;2023-07-29T08:55:56;0.70;;;0.52;;
79126;SDS011;68528;48.814;8.904;2023-07-29T08:58:23;1.50;;;1.00;;
79126;SDS011;68528;48.814;8.904;2023-07-29T09:00:49;1.25;;;1.02;;
79126;SDS011;68528;48.814;8.904;2023-07-29T09:03:16;1.20;;;0.80;;
79126;SDS011;68528;48.814;8.904;2023-07-29T09:05:51;1.55;;;0.80;;
79126;SDS011;68528;48.814;8.904;2023-07-29T09:08:17;1.73;;;1.02;;
79126;SDS011;68528;48.814;8.904;2023-07-29T09:10:44;1.38;;;1.08;;
79126;SDS011;68528;48.814;8.904;2023-07-29T09:13:11;2.88;;;1.00;;
79126;SDS011;68528;48.814;8.904;2023-07-29T09:15:39;1.20;;;0.75;;
79126;SDS011;68528;48.814;8.904;2023-07-29T09:18:26;1.42;;;0.80;;
79126;SDS011;68528;48.814;8.904;2023-07-29T09:20:52;0.88;;;0.77;;
79126;SDS011;68528;48.814;8.904;2023-07-29T09:23:19;0.80;;;0.60;;
79126;SDS011;68528;48.814;8.904;2023-07-29T09:25:47;1.52;;;0.50;;
79126;SDS011;68528;48.814;8.904;2023-07-29T09:28:25;1.30;;;1.00;;
79126;SDS011;68528;48.814;8.904;2023-07-29T09:30:50;1.90;;;0.73;;
79126;SDS011;68528;48.814;8.904;2023-07-29T09:33:17;1.65;;;0.90;;
79126;SDS011;68528;48.814;8.904;2023-07-29T09:35:43;1.90;;;1.20;;
79126;SDS011;68528;48.814;8.904;2023-07-29T09:38:13;3.67;;;1.05;;
79126;SDS011;68528;48.814;8.904;2023-07-29T09:40:40;1.67;;;1.00;;
79126;SDS011;68528;48.814;8.904;2023-07-29T09:43:10;2.38;;;1.17;;
79126;SDS011;68528;48.814;8.904;2023-07-29T09:45:42;2.10;;;1.40;;
79126;SDS011;68528;48.814;8.904;2023-07-29T09:48:07;2.08;;;0.88;;
79126;SDS011;68528;48.814;8.904;2023-07-29T09:50:36;1.65;;;1.10;;
79126;SDS011;68528;48.814;8.904;2023-07-29T09:53:06;1.25;;;0.90;;
79126;SDS011;68528;48.814;8.904;2023-07-29T09:55:32;1.42;;;0.80;;
79126;SDS011;68528;48.814;8.904;2023-07-29T09:57:59;2.45;;;1.02;;
79126;SDS011;68528;48.814;8.904;2023-07-29T10:00:30;1.40;;;0.88;;
79126;SDS011;68528;48.814;8.904;2023-07-29T10:03:03;0.90;;;0.80;;
79126;SDS011;68528;48.814;8.904;2023-07-29T10:05:29;1.27;;;1.00;;
79126;SDS011;68528;48.814;8.904;2023-07-29T10:08:05;1.67;;;0.82;;
79126;SDS011;68528;48.814;8.904;2023-07-29T10:10:32;0.85;;;0.80;;
79126;SDS011;68528;48.814;8.904;2023-07-29T10:12:59;0.98;;;0.60;;
79126;SDS011;68528;48.814;8.904;2023-07-29T10:15:26;1.05;;;0.73;;
79126;SDS011;68528;48.814;8.904;2023-07-29T10:17:54;0.80;;;0.50;;
79126;SDS011;68528;48.814;8.904;2023-07-29T10:20:20;0.95;;;0.80;;
79126;SDS011;68528;48.814;8.904;2023-07-29T10:22:47;2.47;;;0.80;;
79126;SDS011;68528;48.814;8.904;2023-07-29T10:25:15;1.90;;;0.70;;
79126;SDS011;68528;48.814;8.904;2023-07-29T10:27:52;1.10;;;0.70;;
79126;SDS011;68528;48.814;8.904;2023-07-29T10:30:21;1.00;;;0.90;;
79126;SDS011;68528;48.814;8.904;2023-07-29T10:32:49;0.60;;;0.60;;
79126;SDS011;68528;48.814;8.904;2023-07-29T10:35:15;1.92;;;0.73;;
79126;SDS011;68528;48.814;8.904;2023-07-29T10:37:41;1.10;;;0.80;;
79126;SDS011;68528;48.814;8.904;2023-07-29T10:40:08;1.92;;;1.05;;
79126;SDS011;68528;48.814;8.904;2023-07-29T10:42:35;1.05;;;0.80;;
79126;SDS011;68528;48.814;8.904;2023-07-29T10:45:20;1.33;;;0.93;;
79126;SDS011;68528;48.814;8.904;2023-07-29T10:47:46;2.13;;;0.75;;
79126;SDS011;68528;48.814;8.904;2023-07-29T10:50:19;4.78;;;1.00;;
79126;SDS011;68528;48.814;8.904;2023-07-29T10:52:52;1.42;;;1.02;;
79126;SDS011;68528;48.814;8.904;2023-07-29T10:55:25;1.95;;;0.73;;
79126;SDS011;68528;48.814;8.904;2023-07-29T10:58:06;3.38;;;0.85;;
79126;SDS011;68528;48.814;8.904;2023-07-29T11:00:44;1.23;;;0.80;;
79126;SDS011;68528;48.814;8.904;2023-07-29T11:03:11;1.23;;;0.80;;
79126;SDS011;68528;48.814;8.904;2023-07-29T11:05:43;2.83;;;0.50;;
79126;SDS011;68528;48.814;8.904;2023-07-29T11:08:16;1.25;;;0.60;;
79126;SDS011;68528;48.814;8.904;2023-07-29T11:11:06;1.23;;;0.70;;
79126;SDS011;68528;48.814;8.904;2023-07-29T11:13:43;0.98;;;0.68;;
79126;SDS011;68528;48.814;8.904;2023-07-29T11:16:09;4.88;;;0.88;;
79126;SDS011;68528;48.814;8.904;2023-07-29T11:18:37;0.90;;;0.70;;
79126;SDS011;68528;48.814;8.904;2023-07-29T11:21:03;2.35;;;0.90;;
79126;SDS011;68528;48.814;8.904;2023-07-29T11:23:33;2.08;;;0.73;;
79126;SDS011;68528;48.814;8.904;2023-07-29T11:26:00;1.80;;;1.02;;
79126;SDS011;68528;48.814;8.904;2023-07-29T11:28:26;0.68;;;0.52;;
79126;SDS011;68528;48.814;8.904;2023-07-29T11:30:53;0.55;;;0.55;;
79126;SDS011;68528;48.814;8.904;2023-07-29T11:33:20;0.82;;;0.70;;
79126;SDS011;68528;48.814;8.904;2023-07-29T11:35:48;1.10;;;0.80;;
79126;SDS011;68528;48.814;8.904;2023-07-29T11:38:15;1.98;;;0.90;;
79126;SDS011;68528;48.814;8.904;2023-07-29T11:40:53;1.02;;;0.93;;
79126;SDS011;68528;48.814;8.904;2023-07-29T11:43:22;1.50;;;1.10;;
79126;SDS011;68528;48.814;8.904;2023-07-29T11:45:49;1.30;;;0.90;;
79126;SDS011;68528;48.814;8.904;2023-07-29T11:48:14;1.13;;;0.80;;
79126;SDS011;68528;48.814;8.904;2023-07-29T11:50:40;2.28;;;0.60;;
79126;SDS011;68528;48.814;8.904;2023-07-29T11:53:12;2.22;;;0.80;;
79126;SDS011;68528;48.814;8.904;2023-07-29T11:55:43;2.28;;;1.17;;
79126;SDS011;68528;48.814;8.904;2023-07-29T11:58:15;1.73;;;0.93;;
79126;SDS011;68528;48.814;8.904;2023-07-29T12:00:41;3.10;;;1.20;;
79126;SDS011;68528;48.814;8.904;2023-07-29T12:03:06;0.90;;;0.80;;
79126;SDS011;68528;48.814;8.904;2023-07-29T12:05:34;4.95;;;1.08;;
79126;SDS011;68528;48.814;8.904;2023-07-29T12:08:01;1.38;;;1.00;;
79126;SDS011;68528;48.814;8.904;2023-07-29T12:10:27;1.08;;;0.88;;
79126;SDS011;68528;48.814;8.904;2023-07-29T12:12:52;1.95;;;1.08;;
79126;SDS011;68528;48.814;8.904;2023-07-29T12:15:23;1.20;;;0.80;;
79126;SDS011;68528;48.814;8.904;2023-07-29T12:17:54;1.67;;;0.90;;
79126;SDS011;68528;48.814;8.904;2023-07-29T12:20:21;2.83;;;1.30;;
79126;SDS011;68528;48.814;8.904;2023-07-29T12:22:51;1.40;;;1.00;;
79126;SDS011;68528;48.814;8.904;2023-07-29T12:25:23;1.65;;;1.10;;
79126;SDS011;68528;48.814;8.904;2023-07-29T12:27:49;1.40;;;0.90;;
79126;SDS011;68528;48.814;8.904;2023-07-29T12:30:40;1.52;;;1.00;;
79126;SDS011;68528;48.814;8.904;2023-07-29T12:33:08;1.63;;;1.02;;
79126;SDS011;68528;48.814;8.904;2023-07-29T12:36:00;2.92;;;0.90;;
79126;SDS011;68528;48.814;8.904;2023-07-29T12:38:26;3.40;;;1.20;;
79126;SDS011;68528;48.814;8.904;2023-07-29T12:40:52;3.10;;;0.77;;
79126;SDS011;68528;48.814;8.904;2023-07-29T12:43:19;1.15;;;0.90;;
79126;SDS011;68528;48.814;8.904;2023-07-29T12:45:45;1.50;;;1.00;;
79126;SDS011;68528;48.814;8.904;2023-07-29T12:48:11;2.45;;;1.05;;
79126;SDS011;68528;48.814;8.904;2023-07-29T12:50:37;1.40;;;1.10;;
79126;SDS011;68528;48.814;8.904;2023-07-29T12:53:06;1.48;;;1.08;;
79126;SDS011;68528;48.814;8.904;2023-07-29T12:55:32;2.28;;;1.02;;
79126;SDS011;68528;48.814;8.904;2023-07-29T12:57:58;1.60;;;0.90;;
79126;SDS011;68528;48.814;8.904;2023-07-29T13:00:24;2.28;;;1.65;;
79126;SDS011;68528;48.814;8.904;2023-07-29T13:02:50;1.70;;;1.10;;
79126;SDS011;68528;48.814;8.904;2023-07-29T13:05:15;1.20;;;0.95;;
79126;SDS011;68528;48.814;8.904;2023-07-29T13:07:42;1.52;;;1.00;;
79126;SDS011;68528;48.814;8.904;2023-07-29T13:10:08;1.00;;;0.82;;
79126;SDS011;68528;48.814;8.904;2023-07-29T13:12:37;1.10;;;0.95;;
79126;SDS011;68528;48.814;8.904;2023-07-29T13:15:03;1.40;;;1.00;;
79126;SDS011;68528;48.814;8.904;2023-07-29T13:17:29;1.60;;;0.82;;
79126;SDS011;68528;48.814;8.904;2023-07-29T13:19:55;1.33;;;1.00;;
79126;SDS011;68528;48.814;8.904;2023-07-29T13:22:20;2.10;;;1.10;;
79126;SDS011;68528;48.814;8.904;2023-07-29T13:24:46;2.45;;;1.13;;
79126;SDS011;68528;48.814;8.904;2023-07-29T13:27:11;8.20;;;1.15;;
79126;SDS011;68528;48.814;8.904;2023-07-29T13:29:37;1.95;;;0.90;;
79126;SDS011;68528;48.814;8.904;2023-07-29T13:32:02;1.50;;;1.08;;
79126;SDS011;68528;48.814;8.904;2023-07-29T13:34:28;1.45;;;1.20;;
79126;SDS011;68528;48.814;8.904;2023-07-29T13:36:53;3.33;;;1.83;;
79126;SDS011;68528;48.814;8.904;2023-07-29T13:39:19;2.90;;;1.65;;
79126;SDS011;68528;48.814;8.904;2023-07-29T13:41:44;1.13;;;0.80;;
79126;SDS011;68528;48.814;8.904;2023-07-29T13:44:09;1.17;;;0.90;;
79126;SDS011;68528;48.814;8.904;2023-07-29T13:46:35;2.83;;;1.00;;
79126;SDS011;68528;48.814;8.904;2023-07-29T13:49:00;1.30;;;0.98;;
79126;SDS011;68528;48.814;8.904;2023-07-29T13:51:28;2.75;;;0.93;;
79126;SDS011;68528;48.814;8.904;2023-07-29T13:53:53;1.38;;;0.93;;
79126;SDS011;68528;48.814;8.904;2023-07-29T13:56:18;1.65;;;1.10;;
79126;SDS011;68528;48.814;8.904;2023-07-29T13:58:44;1.52;;;0.93;;
79126;SDS011;68528;48.814;8.904;2023-07-29T14:01:17;2.03;;;1.50;;
79126;SDS011;68528;48.814;8.904;2023-07-29T14:03:47;1.40;;;1.10;;
79126;SDS011;68528;48.814;8.904;2023-07-29T14:06:12;1.55;;;1.08;;
79126;SDS011;68528;48.814;8.904;2023-07-29T14:08:37;1.38;;;1.23;;
79126;SDS011;68528;48.814;8.904;2023-07-29T14:11:05;3.15;;;1.00;;
79126;SDS011;68528;48.814;8.904;2023-07-29T14:13:31;1.17;;;1.08;;
79126;SDS011;68528;48.814;8.904;2023-07-29T14:15:56;2.30;;;1.00;;
79126;SDS011;68528;48.814;8.904;2023-07-29T14:18:21;1.90;;;1.13;;
79126;SDS011;68528;48.814;8.904;2023-07-29T14:20:47;1.50;;;1.15;;
79126;SDS011;68528;48.814;8.904;2023-07-29T14:23:12;1.70;;;1.17;;
79126;SDS011;68528;48.814;8.904;2023-07-29T14:25:38;1.10;;;0.88;;
79126;SDS011;68528;48.814;8.904;2023-07-29T14:28:03;1.95;;;1.38;;
79126;SDS011;68528;48.814;8.904;2023-07-29T14:30:29;2.67;;;1.40;;
79126;SDS011;68528;48.814;8.904;2023-07-29T14:32:55;1.85;;;1.00;;
79126;SDS011;68528;48.814;8.904;2023-07-29T14:35:21;1.60;;;1.00;;
79126;SDS011;68528;48.814;8.904;2023-07-29T14:38:06;1.50;;;1.13;;
79126;SDS011;68528;48.814;8.904;2023-07-29T14:40:32;1.83;;;1.10;;
79126;SDS011;68528;48.814;8.904;2023-07-29T14:42:58;1.05;;;0.80;;
79126;SDS011;68528;48.814;8.904;2023-07-29T14:45:25;1.30;;;1.13;;
79126;SDS011;68528;48.814;8.904;2023-07-29T14:47:51;1.30;;;1.02;;
79126;SDS011;68528;48.814;8.904;2023-07-29T14:50:20;1.60;;;1.10;;
79126;SDS011;68528;48.814;8.904;2023-07-29T14:52:45;1.40;;;1.08;;
79126;SDS011;68528;48.814;8.904;2023-07-29T14:55:12;1.58;;;1.17;;
79126;SDS011;68528;48.814;8.904;2023-07-29T14:57:38;1.25;;;0.90;;
79126;SDS011;68528;48.814;8.904;2023-07-29T15:00:06;2.80;;;1.33;;
79126;SDS011;68528;48.814;8.904;2023-07-29T15:02:32;2.22;;;1.00;;
79126;SDS011;68528;48.814;8.904;2023-07-29T15:04:58;1.00;;;0.90;;
79126;SDS011;68528;48.814;8.904;2023-07-29T15:07:26;1.75;;;1.08;;
79126;SDS011;68528;48.814;8.904;2023-07-29T15:09:51;2.85;;;1.35;;
79126;SDS011;68528;48.814;8.904;2023-07-29T15:12:17;1.83;;;1.20;;
79126;SDS011;68528;48.814;8.904;2023-07-29T15:14:42;1.88;;;1.42;;
79126;SDS011;68528;48.814;8.904;2023-07-29T15:17:09;1.88;;;1.20;;
79126;SDS011;68528;48.814;8.904;2023-07-29T15:19:39;3.10;;;1.15;;
79126;SDS011;68528;48.814;8.904;2023-07-29T15:22:14;3.38;;;1.40;;
79126;SDS011;68528;48.814;8.904;2023-07-29T15:24:40;2.40;;;1.13;;
79126;SDS011;68528;48.814;8.904;2023-07-29T15:27:08;2.58;;;1.30;;
79126;SDS011;68528;48.814;8.904;2023-07-29T15:29:35;1.65;;;1.27;;
79126;SDS011;68528;48.814;8.904;2023-07-29T15:32:02;1.77;;;1.27;;
79126;SDS011;68528;48.814;8.904;2023-07-29T15:34:29;1.55;;;1.00;;
79126;SDS011;68528;48.814;8.904;2023-07-29T15:37:07;1.38;;;1.10;;
79126;SDS011;68528;48.814;8.904;2023-07-29T15:39:33;3.10;;;1.30;;
79126;SDS011;68528;48.814;8.904;2023-07-29T15:41:58;2.05;;;1.20;;
79126;SDS011;68528;48.814;8.904;2023-07-29T15:44:24;3.40;;;1.23;;
79126;SDS011;68528;48.814;8.904;2023-07-29T15:46:49;2.15;;;1.33;;
79126;SDS011;68528;48.814;8.904;2023-07-29T15:49:19;2.33;;;1.33;;
79126;SDS011;68528;48.814;8.904;2023-07-29T15:51:47;1.77;;;1.45;;
79126;SDS011;68528;48.814;8.904;2023-07-29T15:54:12;1.90;;;1.10;;
79126;SDS011;68528;48.814;8.904;2023-07-29T15:56:38;1.15;;;1.00;;
79126;SDS011;68528;48.814;8.904;2023-07-29T15:59:08;1.67;;;1.17;;
79126;SDS011;68528;48.814;8.904;2023-07-29T16:01:36;1.90;;;1.35;;
79126;SDS011;68528;48.814;8.904;2023-07-29T16:04:02;2.60;;;1.17;;
79126;SDS011;68528;48.814;8.904;2023-07-29T16:06:31;1.77;;;1.48;;
79126;SDS011;68528;48.814;8.904;2023-07-29T16:08:56;1.77;;;1.27;;
79126;SDS011;68528;48.814;8.904;2023-07-29T16:11:22;2.05;;;1.20;;
79126;SDS011;68528;48.814;8.904;2023-07-29T16:13:48;2.22;;;1.08;;
79126;SDS011;68528;48.814;8.904;2023-07-29T16:16:16;1.67;;;1.27;;
79126;SDS011;68528;48.814;8.904;2023-07-29T16:18:41;1.77;;;1.20;;
79126;SDS011;68528;48.814;8.904;2023-07-29T16:21:07;1.52;;;1.17;;
79126;SDS011;68528;48.814;8.904;2023-07-29T16:23:32;2.03;;;1.45;;
79126;SDS011;68528;48.814;8.904;2023-07-29T16:25:58;2.88;;;1.60;;
79126;SDS011;68528;48.814;8.904;2023-07-29T16:28:24;2.00;;;1.10;;
79126;SDS011;68528;48.814;8.904;2023-07-29T16:30:51;2.35;;;1.33;;
79126;SDS011;68528;48.814;8.904;2023-07-29T16:33:17;3.00;;;1.38;;
79126;SDS011;68528;48.814;8.904;2023-07-29T16:35:43;2.10;;;1.40;;
79126;SDS011;68528;48.814;8.904;2023-07-29T16:38:08;1.35;;;1.10;;
79126;SDS011;68528;48.814;8.904;2023-07-29T16:40:33;1.73;;;1.30;;
79126;SDS011;68528;48.814;8.904;2023-07-29T16:42:59;2.40;;;1.30;;
79126;SDS011;68528;48.814;8.904;2023-07-29T16:45:25;3.35;;;1.75;;
79126;SDS011;68528;48.814;8.904;2023-07-29T16:47:50;1.40;;;1.20;;
79126;SDS011;68528;48.814;8.904;2023-07-29T16:50:19;2.92;;;1.40;;
79126;SDS011;68528;48.814;8.904;2023-07-29T16:52:45;1.83;;;1.17;;
79126;SDS011;68528;48.814;8.904;2023-07-29T16:55:11;2.53;;;1.30;;
79126;SDS011;68528;48.814;8.904;2023-07-29T16:57:36;2.03;;;1.40;;
79126;SDS011;68528;48.814;8.904;2023-07-29T17:00:02;1.85;;;1.40;;
79126;SDS011;68528;48.814;8.904;2023-07-29T17:02:28;2.83;;;1.33;;
79126;SDS011;68528;48.814;8.904;2023-07-29T17:04:56;2.72;;;1.20;;
79126;SDS011;68528;48.814;8.904;2023-07-29T17:07:25;1.50;;;1.10;;
79126;SDS011;68528;48.814;8.904;2023-07-29T17:09:51;1.98;;;1.27;;
79126;SDS011;68528;48.814;8.904;2023-07-29T17:12:17;2.38;;;1.40;;
79126;SDS011;68528;48.814;8.904;2023-07-29T17:14:43;2.83;;;1.90;;
79126;SDS011;68528;48.814;8.904;2023-07-29T17:17:08;2.10;;;1.57;;
79126;SDS011;68528;48.814;8.904;2023-07-29T17:19:33;1.70;;;1.20;;
79126;SDS011;68528;48.814;8.904;2023-07-29T17:21:59;1.70;;;1.20;;
79126;SDS011;68528;48.814;8.904;2023-07-29T17:24:26;1.50;;;1.30;;
79126;SDS011;68528;48.814;8.904;2023-07-29T17:26:53;3.05;;;1.20;;
79126;SDS011;68528;48.814;8.904;2023-07-29T17:29:18;1.35;;;1.05;;
79126;SDS011;68528;48.814;8.904;2023-07-29T17:31:46;1.55;;;1.20;;
79126;SDS011;68528;48.814;8.904;2023-07-29T17:34:12;2.22;;;1.30;;
79126;SDS011;68528;48.814;8.904;2023-07-29T17:36:38;2.60;;;0.90;;
79126;SDS011;68528;48.814;8.904;2023-07-29T17:39:04;2.08;;;1.48;;
79126;SDS011;68528;48.814;8.904;2023-07-29T17:41:31;1.90;;;1.20;;
79126;SDS011;68528;48.814;8.904;2023-07-29T17:43:57;1.30;;;0.90;;
79126;SDS011;68528;48.814;8.904;2023-07-29T17:46:26;2.25;;;1.08;;
79126;SDS011;68528;48.814;8.904;2023-07-29T17:48:51;2.77;;;0.90;;
79126;SDS011;68528;48.814;8.904;2023-07-29T17:51:17;1.50;;;0.60;;
79126;SDS011;68528;48.814;8.904;2023-07-29T17:53:43;1.30;;;0.80;;
79126;SDS011;68528;48.814;8.904;2023-07-29T17:56:08;0.88;;;0.75;;
79126;SDS011;68528;48.814;8.904;2023-07-29T17:58:35;1.67;;;0.80;;
79126;SDS011;68528;48.814;8.904;2023-07-29T18:01:01;2.75;;;1.00;;
79126;SDS011;68528;48.814;8.904;2023-07-29T18:03:30;2.97;;;0.95;;
79126;SDS011;68528;48.814;8.904;2023-07-29T18:05:57;1.02;;;0.90;;
79126;SDS011;68528;48.814;8.904;2023-07-29T18:08:24;1.15;;;0.70;;
79126;SDS011;68528;48.814;8.904;2023-07-29T18:10:53;1.60;;;1.08;;
79126;SDS011;68528;48.814;8.904;2023-07-29T18:13:21;1.63;;;1.33;;
79126;SDS011;68528;48.814;8.904;2023-07-29T18:15:51;1.70;;;1.20;;
79126;SDS011;68528;48.814;8.904;2023-07-29T18:18:18;1.85;;;1.30;;
79126;SDS011;68528;48.814;8.904;2023-07-29T18:20:43;1.50;;;1.25;;
79126;SDS011;68528;48.814;8.904;2023-07-29T18:23:09;1.73;;;1.27;;
79126;SDS011;68528;48.814;8.904;2023-07-29T18:25:35;3.45;;;1.48;;
79126;SDS011;68528;48.814;8.904;2023-07-29T18:28:01;2.50;;;1.25;;
79126;SDS011;68528;48.814;8.904;2023-07-29T18:30:27;1.27;;;1.02;;
79126;SDS011;68528;48.814;8.904;2023-07-29T18:32:54;2.05;;;1.00;;
79126;SDS011;68528;48.814;8.904;2023-07-29T18:35:19;2.72;;;1.58;;
79126;SDS011;68528;48.814;8.904;2023-07-29T18:37:45;1.92;;;1.30;;
79126;SDS011;68528;48.814;8.904;2023-07-29T18:40:17;1.60;;;1.30;;
79126;SDS011;68528;48.814;8.904;2023-07-29T18:42:43;2.88;;;1.23;;
79126;SDS011;68528;48.814;8.904;2023-07-29T18:45:09;1.90;;;1.10;;
79126;SDS011;68528;48.814;8.904;2023-07-29T18:47:34;1.45;;;0.90;;
79126;SDS011;68528;48.814;8.904;2023-07-29T18:50:00;1.60;;;1.05;;
79126;SDS011;68528;48.814;8.904;2023-07-29T18:52:25;1.35;;;0.90;;
79126;SDS011;68528;48.814;8.904;2023-07-29T18:54:51;1.35;;;1.13;;
79126;SDS011;68528;48.814;8.904;2023-07-29T18:57:25;2.05;;;1.27;;
79126;SDS011;68528;48.814;8.904;2023-07-29T18:59:53;1.70;;;1.20;;
79126;SDS011;68528;48.814;8.904;2023-07-29T19:02:19;2.63;;;0.98;;
79126;SDS011;68528;48.814;8.904;2023-07-29T19:04:45;0.90;;;0.60;;
79126;SDS011;68528;48.814;8.904;2023-07-29T19:07:15;1.65;;;1.10;;
79126;SDS011;68528;48.814;8.904;2023-07-29T19:10:01;3.15;;;1.25;;
79126;SDS011;68528;48.814;8.904;2023-07-29T19:12:26;1.77;;;1.35;;
79126;SDS011;68528;48.814;8.904;2023-07-29T19:14:52;1.13;;;0.98;;
79126;SDS011;68528;48.814;8.904;2023-07-29T19:17:21;2.53;;;1.30;;
79126;SDS011;68528;48.814;8.904;2023-07-29T19:19:46;2.03;;;1.23;;
79126;SDS011;68528;48.814;8.904;2023-07-29T19:22:12;2.85;;;1.60;;
79126;SDS011;68528;48.814;8.904;2023-07-29T19:24:41;3.05;;;1.20;;
79126;SDS011;68528;48.814;8.904;2023-07-29T19:27:07;1.65;;;1.38;;
79126;SDS011;68528;48.814;8.904;2023-07-29T19:29:33;2.30;;;1.27;;
79126;SDS011;68528;48.814;8.904;2023-07-29T19:31:59;2.20;;;1.30;;
79126;SDS011;68528;48.814;8.904;2023-07-29T19:34:27;2.03;;;1.15;;
79126;SDS011;68528;48.814;8.904;2023-07-29T19:36:53;2.85;;;1.50;;
79126;SDS011;68528;48.814;8.904;2023-07-29T19:39:40;1.90;;;1.27;;
79126;SDS011;68528;48.814;8.904;2023-07-29T19:42:24;2.65;;;2.08;;
79126;SDS011;68528;48.814;8.904;2023-07-29T19:44:49;3.08;;;1.90;;
79126;SDS011;68528;48.814;8.904;2023-07-29T19:47:14;3.65;;;2.08;;
79126;SDS011;68528;48.814;8.904;2023-07-29T19:49:40;3.45;;;1.88;;
79126;SDS011;68528;48.814;8.904;2023-07-29T19:52:05;2.33;;;1.77;;
79126;SDS011;68528;48.814;8.904;2023-07-29T19:54:32;3.45;;;2.30;;
79126;SDS011;68528;48.814;8.904;2023-07-29T19:56:57;2.78;;;2.05;;
79126;SDS011;68528;48.814;8.904;2023-07-29T19:59:23;3.38;;;2.58;;
79126;SDS011;68528;48.814;8.904;2023-07-29T20:01:49;2.70;;;2.03;;
79126;SDS011;68528;48.814;8.904;2023-07-29T20:04:15;3.20;;;1.50;;
79126;SDS011;68528;48.814;8.904;2023-07-29T20:06:41;4.05;;;2.10;;
79126;SDS011;68528;48.814;8.904;2023-07-29T20:09:06;3.22;;;2.10;;
79126;SDS011;68528;48.814;8.904;2023-07-29T20:11:32;2.55;;;2.13;;
79126;SDS011;68528;48.814;8.904;2023-07-29T20:13:58;3.08;;;2.50;;
79126;SDS011;68528;48.814;8.904;2023-07-29T20:16:48;2.60;;;2.08;;
79126;SDS011;68528;48.814;8.904;2023-07-29T20:19:16;3.15;;;2.03;;
79126;SDS011;68528;48.814;8.904;2023-07-29T20:21:45;3.78;;;2.20;;
79126;SDS011;68528;48.814;8.904;2023-07-29T20:24:11;4.95;;;2.22;;
79126;SDS011;68528;48.814;8.904;2023-07-29T20:26:36;3.67;;;2.30;;
79126;SDS011;68528;48.814;8.904;2023-07-29T20:29:04;3.50;;;2.10;;
79126;SDS011;68528;48.814;8.904;2023-07-29T20:31:29;2.60;;;2.38;;
79126;SDS011;68528;48.814;8.904;2023-07-29T20:33:55;4.25;;;2.28;;
79126;SDS011;68528;48.814;8.904;2023-07-29T20:36:22;3.78;;;2.38;;
79126;SDS011;68528;48.814;8.904;2023-07-29T20:38:48;3.30;;;2.08;;
79126;SDS011;68528;48.814;8.904;2023-07-29T20:41:14;3.30;;;2.30;;
79126;SDS011;68528;48.814;8.904;2023-07-29T20:43:40;3.13;;;2.40;;
79126;SDS011;68528;48.814;8.904;2023-07-29T20:46:06;3.25;;;2.13;;
79126;SDS011;68528;48.814;8.904;2023-07-29T20:48:32;5.20;;;2.10;;
79126;SDS011;68528;48.814;8.904;2023-07-29T20:50:57;2.95;;;1.92;;
79126;SDS011;68528;48.814;8.904;2023-07-29T20:53:23;3.28;;;2.20;;
79126;SDS011;68528;48.814;8.904;2023-07-29T20:55:48;2.40;;;1.95;;
79126;SDS011;68528;48.814;8.904;2023-07-29T20:58:14;2.88;;;2.20;;
79126;SDS011;68528;48.814;8.904;2023-07-29T21:00:39;3.15;;;2.05;;
79126;SDS011;68528;48.814;8.904;2023-07-29T21:03:04;2.95;;;2.45;;
79126;SDS011;68528;48.814;8.904;2023-07-29T21:05:34;3.38;;;2.47;;
79126;SDS011;68528;48.814;8.904;2023-07-29T21:07:59;2.75;;;2.33;;
79126;SDS011;68528;48.814;8.904;2023-07-29T21:10:26;4.13;;;2.80;;
79126;SDS011;68528;48.814;8.904;2023-07-29T21:12:52;3.38;;;2.40;;
79126;SDS011;68528;48.814;8.904;2023-07-29T21:15:17;3.50;;;2.78;;
79126;SDS011;68528;48.814;8.904;2023-07-29T21:17:43;3.17;;;2.10;;
79126;SDS011;68528;48.814;8.904;2023-07-29T21:20:09;4.18;;;2.38;;
79126;SDS011;68528;48.814;8.904;2023-07-29T21:22:35;6.05;;;2.90;;
79126;SDS011;68528;48.814;8.904;2023-07-29T21:25:00;2.90;;;1.70;;
79126;SDS011;68528;48.814;8.904;2023-07-29T21:27:48;2.65;;;2.40;;
79126;SDS011;68528;48.814;8.904;2023-07-29T21:30:14;3.42;;;2.58;;
79126;SDS011;68528;48.814;8.904;2023-07-29T21:32:39;3.00;;;2.42;;
79126;SDS011;68528;48.814;8.904;2023-07-29T21:35:05;4.15;;;2.60;;
79126;SDS011;68528;48.814;8.904;2023-07-29T21:37:30;4.75;;;2.50;;
79126;SDS011;68528;48.814;8.904;2023-07-29T21:39:56;4.30;;;3.00;;
79126;SDS011;68528;48.814;8.904;2023-07-29T21:42:23;3.47;;;2.75;;
79126;SDS011;68528;48.814;8.904;2023-07-29T21:44:49;5.90;;;2.83;;
79126;SDS011;68528;48.814;8.904;2023-07-29T21:47:15;3.92;;;2.85;;